»·PEaware :: N232WP KVNY-KSNA

N232WP :: KVNY-KSNA

FLIGHT INFORMATION

Flight Status: Arrived
Operator: Privately registered:
United States
More flights under this callsign
Pilot: Walter P. (10403)
Aircraft: CESSNA 172 SKYHAWK
(C172)
More flights by this aircraft type
Origin: KVNY Van Nuys
United States
Destination: KSNA John Wayne-Orange Co
United States
More flights between these airports :: More routes between these airports
Route: +
File this flight plan on PilotEdge
Remarks: CAT10 Part 2
Altitude:
(Current/Filed)
5,500ft
Speed:
(Current/Filed)
100kts
Departed: 16-Apr-18 08:05 PM
Arrived: 16-Apr-18 08:40 PM
Distance/Time
Traveled:
45nm/0:35
Distance/Time
To Go:
Arrived

Flight Plot

Page will automatically refresh every two minutes.


Map Options




Map Legend


Flown Route
Filed Route
Departure Airport
Arrival Airport
Navaid (VOR, NDB)
Fix

Horizontal Profiles

Position Reports

Time Latitude Longitude Heading Altitude Ground
Speed
16-Apr-18 19:52 34.217886 -118.495524 358 806ft 0kts
16-Apr-18 19:53 34.217886 -118.495524 358 806ft 0kts
16-Apr-18 19:54 34.217886 -118.495524 358 806ft 0kts
16-Apr-18 19:55 34.217886 -118.495524 358 806ft 0kts
16-Apr-18 19:56 34.217886 -118.495524 358 806ft 0kts
16-Apr-18 19:57 34.217886 -118.495524 358 806ft 0kts
16-Apr-18 19:58 34.217886 -118.495524 358 806ft 0kts
16-Apr-18 19:59 34.217886 -118.495524 358 806ft 0kts
16-Apr-18 20:00 34.217887 -118.495490 158 806ft 5kts
16-Apr-18 20:01 34.218466 -118.492342 17 806ft 13kts
16-Apr-18 20:02 34.218660 -118.492132 62 806ft 0kts
16-Apr-18 20:03 34.218747 -118.491904 71 806ft 8kts
16-Apr-18 20:04 34.205947 -118.489744 183 1118ft 75kts
16-Apr-18 20:05 34.184440 -118.491195 195 1807ft 87kts
16-Apr-18 20:06 34.179462 -118.514294 269 2504ft 75kts
16-Apr-18 20:07 34.181490 -118.537402 268 3300ft 67kts
16-Apr-18 20:08 34.180321 -118.559553 261 4073ft 62kts
16-Apr-18 20:09 34.188591 -118.571330 4 4737ft 93kts
16-Apr-18 20:10 34.195476 -118.589051 329 5361ft 87kts
16-Apr-18 20:11 34.191828 -118.564695 164 5494ft 107kts
16-Apr-18 20:12 34.164954 -118.550678 164 5540ft 115kts
16-Apr-18 20:13 34.136142 -118.535202 164 5539ft 116kts
16-Apr-18 20:14 34.107018 -118.519330 164 5539ft 116kts
16-Apr-18 20:15 34.077846 -118.503997 165 5539ft 117kts
16-Apr-18 20:16 34.048532 -118.487800 164 5503ft 118kts
16-Apr-18 20:17 34.019374 -118.472063 164 5503ft 117kts
16-Apr-18 20:18 33.990123 -118.457378 169 5502ft 119kts
16-Apr-18 20:19 33.959746 -118.440481 168 5502ft 122kts
16-Apr-18 20:20 33.929140 -118.422979 157 5501ft 126kts
16-Apr-18 20:21 33.905088 -118.390711 139 5502ft 133kts
16-Apr-18 20:22 33.881465 -118.360409 143 5484ft 132kts
16-Apr-18 20:23 33.855297 -118.330823 150 5484ft 130kts
16-Apr-18 20:24 33.828178 -118.303845 151 5485ft 129kts
16-Apr-18 20:25 33.800676 -118.276273 150 5485ft 129kts
16-Apr-18 20:26 33.773512 -118.251546 150 5486ft 118kts
16-Apr-18 20:27 33.749519 -118.225962 131 5486ft 120kts
16-Apr-18 20:28 33.729660 -118.190969 130 4797ft 132kts
16-Apr-18 20:29 33.709138 -118.154431 130 3993ft 133kts
16-Apr-18 20:30 33.691215 -118.115490 120 3284ft 132kts
16-Apr-18 20:31 33.682256 -118.074038 91 3096ft 129kts
16-Apr-18 20:32 33.681825 -118.030485 88 3111ft 132kts
16-Apr-18 20:33 33.682890 -117.985590 91 3019ft 132kts
16-Apr-18 20:34 33.682800 -117.946132 92 2425ft 121kts
16-Apr-18 20:35 33.687140 -117.906711 74 1654ft 122kts
16-Apr-18 20:36 33.693996 -117.875867 28 1126ft 92kts
16-Apr-18 20:37 33.698753 -117.858660 162 922ft 67kts
16-Apr-18 20:38 33.683815 -117.863461 209 198ft 52kts
16-Apr-18 20:39 33.675858 -117.869551 297 60ft 13kts
16-Apr-18 20:40 33.675217 -117.870625 206 60ft 16kts
16-Apr-18 20:41 33.672662 -117.873082 205 60ft 1kts
16-Apr-18 20:42 33.672461 -117.873228 208 60ft 0kts
16-Apr-18 20:43 33.672461 -117.873228 208 60ft 0kts
16-Apr-18 20:44 33.672461 -117.873228 208 60ft 0kts
16-Apr-18 20:45 33.672461 -117.873228 208 60ft 0kts
16-Apr-18 20:46 33.672461 -117.873228 208 60ft 0kts
16-Apr-18 20:47 33.672461 -117.873228 208 60ft 0kts
16-Apr-18 20:48 33.672461 -117.873228 208 60ft 0kts

Navigation Log

Ident Type
1. KVNY Airport
2. KSNA Airport